Maldives Meteorological Service

TAFS

Station TAF
VRMM
VRMM 240500Z 2406/2512 08007KT 9999 FEW018TCU TEMPO 2406/2412 FEW019CB=
VRMH
VRMH 240500Z 2406/2506 VRB02KT 9999 FEW018TCU=
VRMK
VRMK 240500Z 2406/2506 04006KT 9999 FEW018=
VRMT
VRMT 240500Z 2406/2506 10006KT 9999 FEW018=
VRMG
VRMG 240500Z 2406/2512 09006KT 9999 FEW018 TEMPO 2406/2412 FEW018CB=